createdAt,value
2023-05-20T00:00:56.501Z,100267.00
2023-05-20T00:03:25.890Z,100276.00
2023-05-20T00:05:54.395Z,100283.00
2023-05-20T00:08:22.489Z,100271.00
2023-05-20T00:10:50.422Z,100273.00
2023-05-20T00:13:18.402Z,100282.00
2023-05-20T00:15:46.994Z,100264.00
2023-05-20T00:18:14.948Z,100278.00
2023-05-20T00:20:44.223Z,100286.00
2023-05-20T00:23:12.216Z,100276.00
2023-05-20T00:25:40.166Z,100271.00
2023-05-20T00:28:08.264Z,100265.00
2023-05-20T00:30:36.351Z,100266.00
2023-05-20T00:33:04.548Z,100271.00
2023-05-20T00:35:32.642Z,100269.00
2023-05-20T00:38:02.372Z,100265.00
2023-05-20T00:40:30.439Z,100256.00
2023-05-20T00:42:58.397Z,100262.00
2023-05-20T00:45:27.165Z,100271.00
2023-05-20T00:47:59.591Z,100261.00
2023-05-20T00:50:28.241Z,100267.00
2023-05-20T00:52:56.758Z,100253.00
2023-05-20T00:55:27.057Z,100263.00
2023-05-20T00:57:55.673Z,100271.00
2023-05-20T01:00:24.100Z,100248.00
2023-05-20T01:02:52.347Z,100269.00
2023-05-20T01:05:20.644Z,100264.00
2023-05-20T01:07:48.679Z,100257.00
2023-05-20T01:10:16.710Z,100258.00
2023-05-20T01:12:53.909Z,100259.00
2023-05-20T01:15:25.158Z,100252.00
2023-05-20T01:18:01.407Z,100269.00
2023-05-20T01:20:32.456Z,100262.00
2023-05-20T01:23:02.612Z,100269.00
2023-05-20T01:25:30.862Z,100269.00
2023-05-20T01:27:59.569Z,100264.00
2023-05-20T01:30:34.563Z,100261.00
2023-05-20T01:33:08.618Z,100252.00
2023-05-20T01:35:37.572Z,100263.00
2023-05-20T01:38:08.735Z,100268.00
2023-05-20T01:40:37.309Z,100273.00
2023-05-20T01:43:06.859Z,100259.00
2023-05-20T01:45:34.945Z,100282.00
2023-05-20T01:48:03.930Z,100272.00
2023-05-20T01:50:32.042Z,100275.00
2023-05-20T01:52:59.992Z,100269.00
2023-05-20T01:55:29.380Z,100269.00
2023-05-20T01:57:57.360Z,100268.00
2023-05-20T02:00:25.554Z,100252.00
2023-05-20T02:02:53.527Z,100261.00
2023-05-20T02:05:21.549Z,100255.00
2023-05-20T02:07:49.512Z,100251.00
2023-05-20T02:10:17.804Z,100241.00
2023-05-20T02:12:48.041Z,100246.00
2023-05-20T02:15:16.433Z,100251.00
2023-05-20T02:17:44.480Z,100244.00
2023-05-20T02:20:13.790Z,100243.00
2023-05-20T02:22:41.798Z,100236.00
2023-05-20T02:25:12.060Z,100247.00
2023-05-20T02:27:40.686Z,100248.00
2023-05-20T02:30:11.207Z,100241.00
2023-05-20T02:32:39.216Z,100239.00
2023-05-20T02:35:08.276Z,100240.00
2023-05-20T02:37:36.224Z,100241.00
2023-05-20T02:40:05.073Z,100237.00
2023-05-20T02:42:33.090Z,100221.00
2023-05-20T02:45:01.112Z,100222.00
2023-05-20T02:47:30.635Z,100221.00
2023-05-20T02:49:58.625Z,100227.00
2023-05-20T02:52:26.822Z,100220.00
2023-05-20T02:54:54.760Z,100221.00
2023-05-20T02:57:23.134Z,100221.00
2023-05-20T02:59:52.381Z,100215.00
2023-05-20T03:02:20.397Z,100225.00
2023-05-20T03:04:50.631Z,100221.00
2023-05-20T03:07:19.697Z,100218.00
2023-05-20T03:09:47.803Z,100209.00
2023-05-20T03:12:15.823Z,100199.00
2023-05-20T03:14:43.754Z,100191.00
2023-05-20T03:17:12.404Z,100189.00
2023-05-20T03:19:41.370Z,100192.00
2023-05-20T03:22:10.720Z,100209.00
2023-05-20T03:24:38.641Z,100208.00
2023-05-20T03:27:07.146Z,100214.00
2023-05-20T03:29:36.223Z,100229.00
2023-05-20T03:32:04.325Z,100216.00
2023-05-20T03:34:32.293Z,100222.00
2023-05-20T03:37:01.856Z,100224.00
2023-05-20T03:39:31.913Z,100231.00
2023-05-20T03:41:59.873Z,100226.00
2023-05-20T03:44:27.985Z,100228.00
2023-05-20T03:46:55.942Z,100231.00
2023-05-20T03:49:23.929Z,100214.00
2023-05-20T03:51:52.688Z,100230.00
2023-05-20T03:54:20.637Z,100230.00
2023-05-20T03:56:53.015Z,100238.00
2023-05-20T03:59:22.304Z,100234.00
2023-05-20T04:01:50.507Z,100237.00
2023-05-20T04:04:18.620Z,100235.00
2023-05-20T04:06:46.653Z,100231.00
2023-05-20T04:09:14.653Z,100227.00
2023-05-20T04:11:43.299Z,100234.00
2023-05-20T04:14:12.644Z,100233.00
2023-05-20T04:16:40.754Z,100238.00
2023-05-20T04:19:09.060Z,100234.00
2023-05-20T04:21:37.474Z,100240.00
2023-05-20T04:24:06.852Z,100219.00
2023-05-20T04:26:35.390Z,100237.00
2023-05-20T04:29:04.209Z,100245.00
2023-05-20T04:31:33.857Z,100245.00
2023-05-20T04:34:02.740Z,100246.00
2023-05-20T04:36:32.453Z,100221.00
2023-05-20T04:39:03.658Z,100242.00
2023-05-20T04:41:31.835Z,100221.00
2023-05-20T04:44:01.474Z,100243.00
2023-05-20T04:46:29.999Z,100253.00
2023-05-20T04:49:00.620Z,100245.00
2023-05-20T04:51:29.437Z,100249.00
2023-05-20T04:53:58.962Z,100253.00
2023-05-20T04:56:29.892Z,100252.00
2023-05-20T04:58:58.715Z,100248.00
2023-05-20T05:01:26.799Z,100241.00
2023-05-20T05:03:54.835Z,100250.00
2023-05-20T05:06:24.129Z,100254.00
2023-05-20T05:08:52.112Z,100246.00
2023-05-20T05:11:20.157Z,100217.00
2023-05-20T05:13:48.507Z,100246.00
2023-05-20T05:16:16.569Z,100259.00
2023-05-20T05:18:44.612Z,100248.00
2023-05-20T05:21:12.713Z,100246.00
2023-05-20T05:23:42.870Z,100257.00
2023-05-20T05:26:10.950Z,100250.00
2023-05-20T05:28:38.982Z,100246.00
2023-05-20T05:31:07.302Z,100240.00
2023-05-20T05:33:35.395Z,100248.00
2023-05-20T05:36:04.865Z,100238.00
2023-05-20T05:38:32.924Z,100230.00
2023-05-20T05:41:02.531Z,100244.00
2023-05-20T05:43:31.664Z,100242.00
2023-05-20T05:46:00.251Z,100235.00
2023-05-20T05:48:28.296Z,100241.00
2023-05-20T05:50:56.728Z,100230.00
2023-05-20T05:53:25.005Z,100240.00
2023-05-20T05:55:53.423Z,100241.00
2023-05-20T05:58:22.719Z,100244.00
2023-05-20T06:00:54.778Z,100244.00
2023-05-20T06:03:23.057Z,100240.00
2023-05-20T06:05:51.291Z,100239.00
2023-05-20T06:08:21.571Z,100233.00
2023-05-20T06:10:50.244Z,100223.00
2023-05-20T06:13:19.342Z,100238.00
2023-05-20T06:15:51.091Z,100234.00
2023-05-20T06:18:19.239Z,100242.00
2023-05-20T06:20:47.789Z,100220.00
2023-05-20T06:23:16.131Z,100232.00
2023-05-20T06:25:58.834Z,100251.00
2023-05-20T06:28:27.358Z,100241.00
2023-05-20T06:30:57.774Z,100227.00
2023-05-20T06:33:29.801Z,100229.00
2023-05-20T06:36:02.375Z,100223.00
2023-05-20T06:38:30.944Z,100224.00
2023-05-20T06:40:58.927Z,100213.00
2023-05-20T06:43:26.986Z,100205.00
2023-05-20T06:46:05.818Z,100216.00
2023-05-20T06:48:45.356Z,100216.00
2023-05-20T06:51:14.051Z,100232.00
2023-05-20T06:53:42.079Z,100217.00
2023-05-20T06:56:10.059Z,100210.00
2023-05-20T06:58:38.239Z,100216.00
2023-05-20T07:01:07.739Z,100206.00
2023-05-20T07:03:36.620Z,100214.00
2023-05-20T07:06:05.021Z,100203.00
2023-05-20T07:08:33.180Z,100210.00
2023-05-20T07:11:01.966Z,100207.00
2023-05-20T07:13:30.978Z,100199.00
2023-05-20T07:15:59.812Z,100189.00
2023-05-20T07:18:29.812Z,100188.00
2023-05-20T07:20:58.378Z,100194.00
2023-05-20T07:23:43.119Z,100186.00
2023-05-20T07:26:11.289Z,100180.00
2023-05-20T07:28:40.088Z,100178.00
2023-05-20T07:31:08.267Z,100183.00
2023-05-20T07:33:44.349Z,100177.00
2023-05-20T07:36:12.663Z,100190.00
2023-05-20T07:38:49.720Z,100182.00
2023-05-20T07:41:24.924Z,100189.00
2023-05-20T07:43:53.210Z,100189.00
2023-05-20T07:46:21.605Z,100187.00
2023-05-20T07:48:51.167Z,100183.00
2023-05-20T07:51:19.813Z,100182.00
2023-05-20T07:53:47.934Z,100185.00
2023-05-20T07:56:16.299Z,100179.00
2023-05-20T07:58:44.589Z,100190.00
2023-05-20T08:01:12.690Z,100189.00
2023-05-20T08:03:40.974Z,100180.00
2023-05-20T08:06:14.515Z,100177.00
2023-05-20T08:08:43.914Z,100172.00
2023-05-20T08:11:19.567Z,100157.00
2023-05-20T08:13:47.989Z,100161.00
2023-05-20T08:16:17.714Z,100170.00
2023-05-20T08:18:47.003Z,100161.00
2023-05-20T08:21:17.175Z,100166.00
2023-05-20T08:23:45.454Z,100152.00
2023-05-20T08:26:13.431Z,100147.00
2023-05-20T08:28:43.436Z,100147.00
2023-05-20T08:31:29.674Z,100152.00
2023-05-20T08:33:57.805Z,100144.00
2023-05-20T08:36:27.209Z,100155.00
2023-05-20T08:38:55.808Z,100152.00
2023-05-20T08:41:24.891Z,100150.00
2023-05-20T08:43:55.433Z,100147.00
2023-05-20T08:46:24.635Z,100139.00
2023-05-20T08:48:52.992Z,100161.00
2023-05-20T08:51:23.905Z,100145.00
2023-05-20T08:53:53.566Z,100136.00
2023-05-20T08:56:23.580Z,100152.00
2023-05-20T08:58:51.523Z,100129.00
2023-05-20T09:01:19.609Z,100142.00
2023-05-20T09:03:47.974Z,100142.00
2023-05-20T09:06:20.351Z,100142.00
2023-05-20T09:08:50.651Z,100132.00
2023-05-20T09:11:21.717Z,100129.00
2023-05-20T09:13:51.419Z,100133.00
2023-05-20T09:16:19.758Z,100132.00
2023-05-20T09:18:48.017Z,100126.00
2023-05-20T09:21:16.394Z,100124.00
2023-05-20T09:23:48.995Z,100112.00
2023-05-20T09:26:19.478Z,100116.00
2023-05-20T09:28:47.849Z,100117.00
2023-05-20T09:31:16.422Z,100128.00
2023-05-20T09:33:45.348Z,100107.00
2023-05-20T09:36:16.672Z,100112.00
2023-05-20T09:38:47.583Z,100099.00
2023-05-20T09:41:16.841Z,100107.00
2023-05-20T09:43:46.913Z,100105.00
2023-05-20T09:46:16.589Z,100111.00
2023-05-20T09:48:45.928Z,100098.00
2023-05-20T09:51:15.657Z,100102.00
2023-05-20T09:53:44.012Z,100105.00
2023-05-20T09:56:12.394Z,100091.00
2023-05-20T09:58:43.098Z,100109.00
2023-05-20T10:01:12.433Z,100108.00
2023-05-20T10:03:43.395Z,100088.00
2023-05-20T10:06:37.586Z,100093.00
2023-05-20T10:09:28.930Z,100080.00
2023-05-20T10:12:21.506Z,100084.00
2023-05-20T10:15:04.215Z,100076.00
2023-05-20T10:17:46.088Z,100091.00
2023-05-20T10:20:14.390Z,100090.00
2023-05-20T10:22:42.372Z,100077.00
2023-05-20T10:25:26.522Z,100059.00
2023-05-20T10:28:07.951Z,100051.00
2023-05-20T10:30:36.728Z,100050.00
2023-05-20T10:33:08.059Z,100042.00
2023-05-20T10:35:36.138Z,100044.00
2023-05-20T10:38:12.652Z,100033.00
2023-05-20T10:40:40.921Z,100028.00
2023-05-20T10:43:12.773Z,100039.00
2023-05-20T10:45:51.494Z,100053.00
2023-05-20T10:48:26.641Z,100046.00
2023-05-20T10:50:58.025Z,100051.00
2023-05-20T10:53:33.275Z,100046.00
2023-05-20T10:56:02.541Z,100033.00
2023-05-20T10:58:40.222Z,100021.00
2023-05-20T11:01:08.254Z,100017.00
2023-05-20T11:03:38.386Z,100024.00
2023-05-20T11:06:14.456Z,100009.00
2023-05-20T11:08:45.015Z,100021.00
2023-05-20T11:11:14.855Z,100011.00
2023-05-20T11:13:44.014Z,100009.00
2023-05-20T11:16:12.069Z,99996.00
2023-05-20T11:18:41.355Z,100005.00
2023-05-20T11:21:09.279Z,100003.00
2023-05-20T11:23:40.445Z,99997.00
2023-05-20T11:26:08.982Z,100021.00
2023-05-20T11:28:37.418Z,100003.00
2023-05-20T11:31:06.543Z,99994.00
2023-05-20T11:33:34.600Z,99993.00
2023-05-20T11:36:08.617Z,99987.00
2023-05-20T11:38:43.001Z,99980.00
2023-05-20T11:41:11.007Z,99986.00
2023-05-20T11:43:39.056Z,99987.00
2023-05-20T11:46:07.271Z,99984.00
2023-05-20T11:48:35.224Z,99967.00
2023-05-20T11:51:04.849Z,99971.00
2023-05-20T11:53:32.835Z,99967.00
2023-05-20T11:56:02.608Z,99963.00
2023-05-20T11:58:32.178Z,99987.00
2023-05-20T12:01:09.619Z,99990.00
2023-05-20T12:03:49.450Z,99956.00
2023-05-20T12:06:19.741Z,99957.00
2023-05-20T12:08:48.377Z,99964.00
2023-05-20T12:11:16.884Z,99972.00
2023-05-20T12:13:44.812Z,99957.00
2023-05-20T12:16:12.890Z,99951.00
2023-05-20T12:18:41.021Z,99931.00
2023-05-20T12:21:10.333Z,99948.00
2023-05-20T12:23:39.788Z,99939.00
2023-05-20T12:26:07.863Z,99936.00
2023-05-20T12:28:36.247Z,99931.00
2023-05-20T12:31:04.341Z,99933.00
2023-05-20T12:33:32.521Z,99943.00
2023-05-20T12:36:00.827Z,99934.00
2023-05-20T12:38:28.894Z,99942.00
2023-05-20T12:40:58.165Z,99922.00
2023-05-20T12:43:26.263Z,99923.00
2023-05-20T12:45:54.485Z,99918.00
2023-05-20T12:48:22.638Z,99910.00
2023-05-20T12:50:50.600Z,99923.00
2023-05-20T12:53:18.669Z,99910.00
2023-05-20T12:55:46.745Z,99912.00
2023-05-20T12:58:16.070Z,99897.00
2023-05-20T13:00:44.131Z,99899.00
2023-05-20T13:03:12.196Z,99905.00
2023-05-20T13:05:40.386Z,99893.00
2023-05-20T13:08:09.095Z,99895.00
2023-05-20T13:10:37.698Z,99899.00
2023-05-20T13:13:06.054Z,99907.00
2023-05-20T13:15:35.600Z,99899.00
2023-05-20T13:18:06.280Z,99887.00
2023-05-20T13:20:35.478Z,99890.00
2023-05-20T13:23:03.688Z,99881.00
2023-05-20T13:25:31.893Z,99894.00
2023-05-20T13:28:00.013Z,99884.00
2023-05-20T13:30:28.561Z,99891.00
2023-05-20T13:32:57.918Z,99883.00
2023-05-20T13:35:27.031Z,99874.00
2023-05-20T13:37:55.046Z,99890.00
2023-05-20T13:40:23.467Z,99898.00
2023-05-20T13:42:51.393Z,99876.00
2023-05-20T13:45:19.705Z,99877.00
2023-05-20T13:47:47.777Z,99864.00
2023-05-20T13:50:17.220Z,99867.00
2023-05-20T13:52:45.140Z,99849.00
2023-05-20T13:55:13.240Z,99849.00
2023-05-20T13:57:41.164Z,99854.00
2023-05-20T14:00:10.946Z,99847.00
2023-05-20T14:02:39.287Z,99828.00
2023-05-20T14:05:08.881Z,99843.00
2023-05-20T14:07:39.204Z,99832.00
2023-05-20T14:10:09.241Z,99835.00
2023-05-20T14:12:37.222Z,99836.00
2023-05-20T14:15:06.102Z,99824.00
2023-05-20T14:17:34.053Z,99829.00
2023-05-20T14:20:02.007Z,99861.00
2023-05-20T14:22:29.936Z,99827.00
2023-05-20T14:24:59.506Z,99811.00
2023-05-20T14:27:27.454Z,99810.00
2023-05-20T14:29:55.429Z,99804.00
2023-05-20T14:32:23.439Z,99799.00
2023-05-20T14:34:53.774Z,99805.00
2023-05-20T14:37:22.970Z,99804.00
2023-05-20T14:39:50.985Z,99821.00
2023-05-20T14:42:20.364Z,99790.00
2023-05-20T14:44:49.669Z,99803.00
2023-05-20T14:47:21.402Z,99789.00
2023-05-20T14:49:51.257Z,99793.00
2023-05-20T14:52:20.050Z,99795.00
2023-05-20T14:54:48.028Z,99806.00
2023-05-20T14:57:16.745Z,99811.00
2023-05-20T14:59:46.424Z,99798.00
2023-05-20T15:02:15.832Z,99794.00
2023-05-20T15:04:46.396Z,99809.00
2023-05-20T15:07:14.761Z,99798.00
2023-05-20T15:09:43.679Z,99791.00
2023-05-20T15:12:12.312Z,99800.00
2023-05-20T15:14:40.316Z,99795.00
2023-05-20T15:17:09.701Z,99795.00
2023-05-20T15:19:41.277Z,99792.00
2023-05-20T15:22:09.818Z,99788.00
2023-05-20T15:24:37.762Z,99788.00
2023-05-20T15:27:06.517Z,99780.00
2023-05-20T15:29:35.109Z,99769.00
2023-05-20T15:32:03.285Z,99780.00
2023-05-20T15:34:32.660Z,99776.00
2023-05-20T15:37:00.646Z,99780.00
2023-05-20T15:39:29.119Z,99767.00
2023-05-20T15:41:59.455Z,99772.00
2023-05-20T15:44:38.832Z,99773.00
2023-05-20T15:47:06.873Z,99763.00
2023-05-20T15:49:36.188Z,99771.00
2023-05-20T15:52:05.004Z,99768.00
2023-05-20T15:54:33.245Z,99778.00
2023-05-20T15:57:02.464Z,99764.00
2023-05-20T15:59:30.517Z,99755.00
2023-05-20T16:01:58.530Z,99760.00
2023-05-20T16:04:26.632Z,99756.00
2023-05-20T16:06:55.959Z,99750.00
2023-05-20T16:09:23.891Z,99747.00
2023-05-20T16:11:51.826Z,99749.00
2023-05-20T16:14:19.761Z,99742.00
2023-05-20T16:16:47.792Z,99738.00
2023-05-20T16:19:16.201Z,99741.00
2023-05-20T16:21:44.280Z,99739.00
2023-05-20T16:24:13.682Z,99730.00
2023-05-20T16:26:41.753Z,99740.00
2023-05-20T16:29:09.730Z,99751.00
2023-05-20T16:31:37.952Z,99753.00
2023-05-20T16:34:06.563Z,99750.00
2023-05-20T16:36:34.517Z,99758.00
2023-05-20T16:39:02.476Z,99761.00
2023-05-20T16:41:31.883Z,99754.00
2023-05-20T16:44:00.066Z,99771.00
2023-05-20T16:46:28.059Z,99756.00
2023-05-20T16:48:56.235Z,99752.00
2023-05-20T16:51:24.319Z,99749.00
2023-05-20T16:53:52.237Z,99748.00
2023-05-20T16:56:21.733Z,99744.00
2023-05-20T16:58:52.972Z,99755.00
2023-05-20T17:01:22.993Z,99760.00
2023-05-20T17:03:51.125Z,99771.00
2023-05-20T17:06:19.216Z,99758.00
2023-05-20T17:08:47.363Z,99755.00
2023-05-20T17:11:15.612Z,99751.00
2023-05-20T17:13:43.552Z,99749.00
2023-05-20T17:16:12.936Z,99753.00
2023-05-20T17:18:41.215Z,99738.00
2023-05-20T17:21:09.250Z,99764.00
2023-05-20T17:23:37.207Z,99773.00
2023-05-20T17:26:05.619Z,99767.00
2023-05-20T17:28:33.531Z,99764.00
2023-05-20T17:31:01.486Z,99764.00
2023-05-20T17:33:31.499Z,99766.00
2023-05-20T17:35:59.572Z,99764.00
2023-05-20T17:38:27.628Z,99769.00
2023-05-20T17:40:56.298Z,99764.00
2023-05-20T17:43:25.180Z,99760.00
2023-05-20T17:45:53.376Z,99770.00
2023-05-20T17:48:21.401Z,99770.00
2023-05-20T17:50:50.939Z,99766.00
2023-05-20T17:53:21.983Z,99763.00
2023-05-20T17:55:50.317Z,99770.00
2023-05-20T17:58:18.544Z,99765.00
2023-05-20T18:00:46.509Z,99767.00
2023-05-20T18:03:14.732Z,99780.00
2023-05-20T18:05:42.720Z,99783.00
2023-05-20T18:08:12.123Z,99768.00
2023-05-20T18:10:40.108Z,99784.00
2023-05-20T18:13:08.314Z,99790.00
2023-05-20T18:15:36.289Z,99795.00
2023-05-20T18:18:04.383Z,99796.00
2023-05-20T18:20:32.583Z,99799.00
2023-05-20T18:23:00.621Z,99798.00
2023-05-20T18:25:29.927Z,99786.00
2023-05-20T18:27:57.926Z,99792.00
2023-05-20T18:30:26.177Z,99795.00
2023-05-20T18:32:54.122Z,99790.00
2023-05-20T18:35:22.528Z,99798.00
2023-05-20T18:37:51.402Z,99805.00
2023-05-20T18:40:20.519Z,99802.00
2023-05-20T18:42:49.928Z,99798.00
2023-05-20T18:45:18.031Z,99806.00
2023-05-20T18:47:46.127Z,99802.00
2023-05-20T18:50:14.283Z,99805.00
2023-05-20T18:52:42.241Z,99811.00
2023-05-20T18:55:10.724Z,99819.00
2023-05-20T18:57:39.183Z,99820.00
2023-05-20T19:00:12.284Z,99802.00
2023-05-20T19:02:41.101Z,99811.00
2023-05-20T19:05:11.659Z,99827.00
2023-05-20T19:07:40.088Z,99820.00
2023-05-20T19:10:09.774Z,99821.00
2023-05-20T19:12:37.744Z,99824.00
2023-05-20T19:15:08.855Z,99832.00
2023-05-20T19:17:36.839Z,99830.00
2023-05-20T19:20:07.121Z,99835.00
2023-05-20T19:22:35.416Z,99831.00
2023-05-20T19:25:03.592Z,99834.00
2023-05-20T19:27:31.670Z,99847.00
2023-05-20T19:29:59.624Z,99843.00
2023-05-20T19:32:28.910Z,99846.00
2023-05-20T19:34:57.151Z,99834.00
2023-05-20T19:37:25.420Z,99834.00
2023-05-20T19:39:53.471Z,99839.00
2023-05-20T19:42:21.658Z,99838.00
2023-05-20T19:44:50.109Z,99837.00
2023-05-20T19:47:18.216Z,99848.00
2023-05-20T19:49:47.561Z,99840.00
2023-05-20T19:52:15.675Z,99834.00
2023-05-20T19:54:43.626Z,99847.00
2023-05-20T19:57:12.125Z,99846.00
2023-05-20T19:59:40.159Z,99852.00
2023-05-20T20:02:08.297Z,99838.00
2023-05-20T20:04:36.328Z,99845.00
2023-05-20T20:07:07.545Z,99850.00
2023-05-20T20:09:35.945Z,99837.00
2023-05-20T20:12:05.235Z,99841.00
2023-05-20T20:14:33.921Z,99846.00
2023-05-20T20:17:01.838Z,99841.00
2023-05-20T20:19:29.902Z,99845.00
2023-05-20T20:21:58.283Z,99841.00
2023-05-20T20:24:27.658Z,99826.00
2023-05-20T20:26:56.912Z,99821.00
2023-05-20T20:29:25.038Z,99826.00
2023-05-20T20:31:53.304Z,99825.00
2023-05-20T20:34:21.978Z,99831.00
2023-05-20T20:36:51.245Z,99827.00
2023-05-20T20:39:19.903Z,99824.00
2023-05-20T20:41:50.806Z,99828.00
2023-05-20T20:44:22.398Z,99827.00
2023-05-20T20:46:51.772Z,99824.00
2023-05-20T20:49:20.711Z,99833.00
2023-05-20T20:51:50.248Z,99822.00
2023-05-20T20:54:18.333Z,99822.00
2023-05-20T20:56:47.232Z,99824.00
2023-05-20T20:59:16.858Z,99831.00
2023-05-20T21:01:45.421Z,99824.00
2023-05-20T21:04:13.825Z,99828.00
2023-05-20T21:06:45.826Z,99830.00
2023-05-20T21:09:14.226Z,99826.00
2023-05-20T21:11:43.069Z,99840.00
2023-05-20T21:14:11.950Z,99828.00
2023-05-20T21:16:42.183Z,99826.00
2023-05-20T21:19:10.433Z,99837.00
2023-05-20T21:21:38.481Z,99830.00
2023-05-20T21:24:07.237Z,99830.00
2023-05-20T21:26:35.231Z,99824.00
2023-05-20T21:29:03.136Z,99830.00
2023-05-20T21:31:31.353Z,99833.00
2023-05-20T21:34:00.623Z,99826.00
2023-05-20T21:36:28.619Z,99827.00
2023-05-20T21:38:57.024Z,99818.00
2023-05-20T21:41:25.015Z,99823.00
2023-05-20T21:43:53.245Z,99827.00
2023-05-20T21:46:21.463Z,99835.00
2023-05-20T21:48:49.519Z,99819.00
2023-05-20T21:51:18.946Z,99826.00
2023-05-20T21:53:47.005Z,99829.00
2023-05-20T21:56:15.070Z,99823.00
2023-05-20T21:58:43.020Z,99822.00
2023-05-20T22:01:11.000Z,99823.00
2023-05-20T22:03:39.891Z,99812.00
2023-05-20T22:06:08.010Z,99819.00
2023-05-20T22:08:37.270Z,99817.00
2023-05-20T22:11:07.110Z,99806.00
2023-05-20T22:13:36.444Z,99813.00
2023-05-20T22:16:05.388Z,99811.00
2023-05-20T22:18:33.425Z,99803.00
2023-05-20T22:21:01.617Z,99811.00
2023-05-20T22:23:29.956Z,99808.00
2023-05-20T22:25:59.283Z,99808.00
2023-05-20T22:28:27.262Z,99799.00
2023-05-20T22:30:55.555Z,99797.00
2023-05-20T22:33:24.359Z,99796.00
2023-05-20T22:35:53.480Z,99788.00
2023-05-20T22:38:21.975Z,99798.00
2023-05-20T22:40:49.883Z,99791.00
2023-05-20T22:43:23.159Z,99790.00
2023-05-20T22:45:51.166Z,99779.00
2023-05-20T22:48:19.297Z,99780.00
2023-05-20T22:50:48.194Z,99784.00
2023-05-20T22:53:16.508Z,99780.00
2023-05-20T22:55:44.489Z,99773.00
2023-05-20T22:58:12.595Z,99784.00
2023-05-20T23:00:41.940Z,99780.00
2023-05-20T23:03:09.958Z,99775.00
2023-05-20T23:05:38.176Z,99778.00
2023-05-20T23:08:07.390Z,99777.00
2023-05-20T23:10:35.352Z,99764.00
2023-05-20T23:13:03.360Z,99768.00
2023-05-20T23:15:31.467Z,99783.00
2023-05-20T23:18:00.913Z,99771.00
2023-05-20T23:20:29.456Z,99766.00
2023-05-20T23:22:58.054Z,99756.00
2023-05-20T23:25:26.902Z,99772.00
2023-05-20T23:27:54.886Z,99772.00
2023-05-20T23:30:22.847Z,99767.00
2023-05-20T23:32:51.278Z,99782.00
2023-05-20T23:35:20.832Z,99773.00
2023-05-20T23:37:48.787Z,99768.00
2023-05-20T23:40:16.735Z,99770.00
2023-05-20T23:42:44.669Z,99761.00
2023-05-20T23:45:13.549Z,99764.00
2023-05-20T23:47:42.031Z,99757.00
2023-05-20T23:50:11.349Z,99754.00
2023-05-20T23:52:40.898Z,99755.00
2023-05-20T23:55:12.847Z,99751.00
2023-05-20T23:57:40.968Z,99752.00
